Time;durP1;ratioP1;P1;durP2;ratioP2;P2;SDS_P1;SDS_P2;PMS_P1;PMS_P2;Temp;Humidity;BMP_temperature;BMP_pressure;BME280_temperature;BME280_humidity;BME280_pressure;Samples;Min_cycle;Max_cycle;Signal;HPM_P1;HPM_P2
2023/02/17 00:00:51;;;;;;;96.50;83.70;;;;;;;;;;5028484;28;20095;-59
2023/02/17 00:03:17;;;;;;;92.25;82.40;;;;;;;;;;5010433;28;20029;-60
2023/02/17 00:05:44;;;;;;;101.15;86.10;;;;;;;;;;5010052;28;20064;-62
2023/02/17 00:08:10;;;;;;;105.35;91.15;;;;;;;;;;5028785;28;20107;-63
2023/02/17 00:10:36;;;;;;;97.28;86.72;;;;;;;;;;5028850;28;20494;-59
2023/02/17 00:13:02;;;;;;;94.80;83.72;;;;;;;;;;5010204;28;20021;-58
2023/02/17 00:15:28;;;;;;;100.75;85.35;;;;;;;;;;5027605;23;20021;-63
2023/02/17 00:17:54;;;;;;;99.90;88.75;;;;;;;;;;5028527;28;20099;-64
2023/02/17 00:20:20;;;;;;;95.18;84.68;;;;;;;;;;5027536;28;20026;-65
2023/02/17 00:22:46;;;;;;;93.70;83.47;;;;;;;;;;5029866;28;20056;-64
2023/02/17 00:25:12;;;;;;;95.57;85.05;;;;;;;;;;5028732;28;20025;-65
2023/02/17 00:27:38;;;;;;;97.70;87.45;;;;;;;;;;5030680;28;20013;-65
2023/02/17 00:30:05;;;;;;;96.65;86.20;;;;;;;;;;5030386;28;20021;-64
2023/02/17 00:32:31;;;;;;;96.72;86.25;;;;;;;;;;5030578;28;20156;-63
2023/02/17 00:34:57;;;;;;;101.25;90.30;;;;;;;;;;5029857;28;20149;-65
2023/02/17 00:37:23;;;;;;;88.80;79.32;;;;;;;;;;5030095;28;20047;-64
2023/02/17 00:39:50;;;;;;;100.03;89.45;;;;;;;;;;5030557;28;20111;-64
2023/02/17 00:42:16;;;;;;;100.35;89.78;;;;;;;;;;5030260;28;20280;-63
2023/02/17 00:44:42;;;;;;;102.00;91.50;;;;;;;;;;5029748;28;20030;-63
2023/02/17 00:47:07;;;;;;;94.15;84.20;;;;;;;;;;5029798;28;20029;-62
2023/02/17 00:49:33;;;;;;;95.22;85.25;;;;;;;;;;5030358;28;20033;-64
2023/02/17 00:52:03;;;;;;;99.18;88.88;;;;;;;;;;5012601;28;20029;-64
2023/02/17 00:54:29;;;;;;;93.57;83.85;;;;;;;;;;5029672;28;20027;-64
2023/02/17 00:56:55;;;;;;;97.25;87.05;;;;;;;;;;5030499;28;20022;-63
2023/02/17 00:59:21;;;;;;;102.38;91.55;;;;;;;;;;5029633;28;20026;-63
2023/02/17 01:01:47;;;;;;;97.95;87.75;;;;;;;;;;5030368;28;20029;-61
2023/02/17 01:04:13;;;;;;;105.05;94.57;;;;;;;;;;5012283;28;20109;-62
2023/02/17 01:06:39;;;;;;;99.82;89.80;;;;;;;;;;5030790;28;20025;-63
2023/02/17 01:09:06;;;;;;;104.43;93.63;;;;;;;;;;5030620;28;20033;-63
2023/02/17 01:11:33;;;;;;;107.15;96.85;;;;;;;;;;5030428;28;20034;-63
2023/02/17 01:14:00;;;;;;;103.85;93.05;;;;;;;;;;5029585;28;20094;-63
2023/02/17 01:16:33;;;;;;;110.75;99.28;;;;;;;;;;5029825;28;20033;-64
2023/02/17 01:19:00;;;;;;;106.63;96.20;;;;;;;;;;5030277;28;20029;-63
2023/02/17 01:21:27;;;;;;;111.57;100.25;;;;;;;;;;5012543;28;20414;-63
2023/02/17 01:23:55;;;;;;;116.75;104.28;;;;;;;;;;5029698;28;20018;-63
2023/02/17 01:26:22;;;;;;;106.68;96.18;;;;;;;;;;5030175;28;20056;-63
2023/02/17 01:28:48;;;;;;;108.25;97.28;;;;;;;;;;5030074;28;20041;-63
2023/02/17 01:37:22;;;;;;;113.30;101.70;;;;;;;;;;5024551;28;20082;-63
2023/02/17 01:39:48;;;;;;;115.25;103.50;;;;;;;;;;5029779;28;20034;-63
2023/02/17 01:42:19;;;;;;;114.90;103.30;;;;;;;;;;5011864;28;20032;-64
2023/02/17 01:45:04;;;;;;;110.22;98.97;;;;;;;;;;5008034;28;20048;-63
2023/02/17 01:47:30;;;;;;;114.50;102.82;;;;;;;;;;5029562;28;20041;-63
2023/02/17 01:49:56;;;;;;;111.47;100.30;;;;;;;;;;5029610;28;20063;-63
2023/02/17 01:52:24;;;;;;;106.45;96.57;;;;;;;;;;5029877;28;20491;-63
2023/02/17 01:54:54;;;;;;;105.55;95.30;;;;;;;;;;5029193;28;20159;-62
2023/02/17 01:57:21;;;;;;;108.95;98.63;;;;;;;;;;5029805;28;20071;-63
2023/02/17 01:59:47;;;;;;;105.68;95.45;;;;;;;;;;5030080;28;20037;-63
2023/02/17 02:02:14;;;;;;;100.18;90.88;;;;;;;;;;5029759;28;20108;-64
2023/02/17 02:04:41;;;;;;;101.25;91.65;;;;;;;;;;5029048;28;20121;-64
2023/02/17 02:07:15;;;;;;;102.13;92.63;;;;;;;;;;5029738;28;20390;-63
2023/02/17 02:09:44;;;;;;;97.35;88.28;;;;;;;;;;5030962;28;20029;-64
2023/02/17 02:12:10;;;;;;;;;;;;;;;;;;5033713;28;20084;-64
2023/02/17 02:14:36;;;;;;;92.93;84.53;;;;;;;;;;5032737;28;19932;-64
2023/02/17 02:17:02;;;;;;;91.60;83.30;;;;;;;;;;5015196;28;20067;-64
2023/02/17 02:19:46;;;;;;;96.05;86.85;;;;;;;;;;5033181;28;20040;-65
2023/02/17 02:22:31;;;;;;;93.03;84.80;;;;;;;;;;5015303;28;20021;-66
2023/02/17 02:24:57;;;;;;;91.45;83.63;;;;;;;;;;5032449;28;20017;-64
2023/02/17 02:27:29;;;;;;;92.38;84.32;;;;;;;;;;5032803;28;20027;-64
2023/02/17 02:29:55;;;;;;;87.30;79.88;;;;;;;;;;5032843;28;20544;-64
2023/02/17 02:32:36;;;;;;;87.80;79.90;;;;;;;;;;5032741;28;20030;-64
2023/02/17 02:35:08;;;;;;;84.70;77.72;;;;;;;;;;5014352;28;20033;-64
2023/02/17 02:37:44;;;;;;;89.03;81.55;;;;;;;;;;5032741;28;20032;-64
2023/02/17 02:40:10;;;;;;;84.35;77.10;;;;;;;;;;5014863;28;20069;-63
2023/02/17 02:42:37;;;;;;;83.45;75.85;;;;;;;;;;5032487;28;20033;-65
2023/02/17 02:45:06;;;;;;;80.20;73.47;;;;;;;;;;5031806;28;21070;-64
2023/02/17 02:47:31;;;;;;;76.53;70.03;;;;;;;;;;5013033;28;20025;-63
2023/02/17 02:49:57;;;;;;;73.38;66.95;;;;;;;;;;5006348;28;20440;-63
2023/02/17 02:52:33;;;;;;;75.15;68.85;;;;;;;;;;5024048;28;20366;-63
2023/02/17 02:54:59;;;;;;;70.78;64.35;;;;;;;;;;5028091;28;20456;-63
2023/02/17 02:57:25;;;;;;;68.65;62.60;;;;;;;;;;5009783;28;20033;-65
2023/02/17 03:00:10;;;;;;;67.68;61.83;;;;;;;;;;5032220;28;20028;-64
2023/02/17 03:02:51;;;;;;;67.00;61.45;;;;;;;;;;5032115;28;20071;-64
2023/02/17 03:05:38;;;;;;;66.35;60.50;;;;;;;;;;5031450;28;20053;-63
2023/02/17 03:08:04;;;;;;;66.35;60.63;;;;;;;;;;5032000;28;20033;-64
2023/02/17 03:10:30;;;;;;;66.00;60.40;;;;;;;;;;5023730;28;20076;-62
2023/02/17 03:12:56;;;;;;;64.85;58.95;;;;;;;;;;5031725;28;20038;-62
2023/02/17 03:15:25;;;;;;;60.78;55.50;;;;;;;;;;5031253;28;20104;-63
2023/02/17 03:17:51;;;;;;;63.03;57.63;;;;;;;;;;5031958;28;20100;-64
2023/02/17 03:20:17;;;;;;;59.35;53.95;;;;;;;;;;5013808;28;20434;-64
2023/02/17 03:22:46;;;;;;;57.03;51.92;;;;;;;;;;5031250;28;20025;-63
2023/02/17 03:25:12;;;;;;;57.45;52.50;;;;;;;;;;5013275;28;20021;-63
2023/02/17 03:27:38;;;;;;;55.47;50.45;;;;;;;;;;5031486;28;20382;-64
2023/02/17 03:30:04;;;;;;;54.50;49.47;;;;;;;;;;5013894;28;20026;-63
2023/02/17 03:32:30;;;;;;;53.83;49.03;;;;;;;;;;5013881;28;20021;-63
2023/02/17 03:34:56;;;;;;;56.05;51.05;;;;;;;;;;5030936;28;20497;-62
2023/02/17 03:37:22;;;;;;;55.65;50.75;;;;;;;;;;5031656;28;20021;-65
2023/02/17 03:39:48;;;;;;;56.45;51.45;;;;;;;;;;5013780;28;20582;-65
2023/02/17 03:42:14;;;;;;;55.05;50.05;;;;;;;;;;5013590;28;20029;-65
2023/02/17 03:44:40;;;;;;;56.20;51.40;;;;;;;;;;5030662;28;20024;-65
2023/02/17 03:47:06;;;;;;;57.85;52.45;;;;;;;;;;5031335;28;20456;-65
2023/02/17 03:49:32;;;;;;;56.10;51.30;;;;;;;;;;5013703;28;20025;-65
2023/02/17 03:51:58;;;;;;;56.40;51.45;;;;;;;;;;5031330;28;20112;-64
2023/02/17 03:54:25;;;;;;;55.30;50.55;;;;;;;;;;5013095;28;20026;-63
2023/02/17 03:56:50;;;;;;;54.83;50.13;;;;;;;;;;5031208;28;20477;-64
2023/02/17 03:59:16;;;;;;;55.95;51.05;;;;;;;;;;5013816;28;20038;-64
2023/02/17 04:01:42;;;;;;;55.45;50.63;;;;;;;;;;5031222;28;20433;-63
2023/02/17 04:04:08;;;;;;;52.53;47.97;;;;;;;;;;5030801;28;20466;-65
2023/02/17 04:06:34;;;;;;;51.53;47.03;;;;;;;;;;5030948;28;20021;-66
2023/02/17 04:09:00;;;;;;;51.63;47.13;;;;;;;;;;5013302;28;20033;-64
2023/02/17 04:11:26;;;;;;;52.58;48.15;;;;;;;;;;5030897;28;20474;-65
2023/02/17 04:13:52;;;;;;;51.63;47.25;;;;;;;;;;5012640;28;20025;-65
2023/02/17 04:16:19;;;;;;;48.88;44.63;;;;;;;;;;5030678;28;20420;-66
2023/02/17 04:18:45;;;;;;;46.85;42.92;;;;;;;;;;5013048;28;20033;-65
2023/02/17 04:21:11;;;;;;;45.47;41.45;;;;;;;;;;5013182;28;20033;-65
2023/02/17 04:23:37;;;;;;;45.78;41.83;;;;;;;;;;5012227;28;20021;-65
2023/02/17 04:26:04;;;;;;;47.90;43.70;;;;;;;;;;5030711;28;20103;-65
2023/02/17 04:28:30;;;;;;;47.03;42.85;;;;;;;;;;5030820;28;20044;-63
2023/02/17 04:30:57;;;;;;;46.20;42.08;;;;;;;;;;5030807;28;20502;-66
2023/02/17 04:33:23;;;;;;;46.65;42.50;;;;;;;;;;5029549;28;20056;-64
2023/02/17 04:35:48;;;;;;;45.17;41.28;;;;;;;;;;5030423;28;20064;-64
2023/02/17 04:38:15;;;;;;;44.83;40.92;;;;;;;;;;5031000;28;20087;-64
2023/02/17 04:40:41;;;;;;;41.83;38.05;;;;;;;;;;5030380;28;20473;-64
2023/02/17 04:43:07;;;;;;;43.10;39.15;;;;;;;;;;5029763;28;20064;-65
2023/02/17 04:45:34;;;;;;;43.20;38.78;;;;;;;;;;5030442;28;20021;-64
2023/02/17 04:48:00;;;;;;;41.10;37.40;;;;;;;;;;5012904;28;20066;-65
2023/02/17 04:50:26;;;;;;;39.78;36.17;;;;;;;;;;5030687;28;20014;-64
2023/02/17 04:52:52;;;;;;;39.20;35.60;;;;;;;;;;5030614;28;20101;-66
2023/02/17 04:55:18;;;;;;;36.55;32.97;;;;;;;;;;5011672;28;20026;-65
2023/02/17 04:57:44;;;;;;;37.47;33.85;;;;;;;;;;5030272;28;20018;-66
2023/02/17 05:00:11;;;;;;;35.88;32.55;;;;;;;;;;5030292;28;20029;-64
2023/02/17 05:02:37;;;;;;;35.97;32.28;;;;;;;;;;5030117;28;20029;-64
2023/02/17 05:05:03;;;;;;;33.35;30.05;;;;;;;;;;5029384;28;20033;-64
2023/02/17 05:07:29;;;;;;;32.65;29.25;;;;;;;;;;5030147;28;20061;-64
2023/02/17 05:09:55;;;;;;;32.25;28.95;;;;;;;;;;5012603;28;20036;-65
2023/02/17 05:12:21;;;;;;;29.05;25.95;;;;;;;;;;5030182;28;20030;-66
2023/02/17 05:14:47;;;;;;;28.17;25.15;;;;;;;;;;5012062;28;20044;-65
2023/02/17 05:17:13;;;;;;;28.15;25.15;;;;;;;;;;5029914;28;20033;-65
2023/02/17 05:19:39;;;;;;;27.67;24.77;;;;;;;;;;5029960;28;20064;-64
2023/02/17 05:22:05;;;;;;;29.25;26.08;;;;;;;;;;5030164;28;20025;-64
2023/02/17 05:24:31;;;;;;;27.55;24.65;;;;;;;;;;5029258;28;20097;-65
2023/02/17 05:26:57;;;;;;;28.30;25.40;;;;;;;;;;5030076;28;20041;-65
2023/02/17 05:29:23;;;;;;;27.60;24.75;;;;;;;;;;5029928;28;20410;-64
2023/02/17 05:31:49;;;;;;;28.00;25.20;;;;;;;;;;5030025;28;20032;-65
2023/02/17 05:34:15;;;;;;;28.08;25.25;;;;;;;;;;5029373;28;20032;-65
2023/02/17 05:36:41;;;;;;;27.52;24.73;;;;;;;;;;5029995;28;20025;-65
2023/02/17 05:39:07;;;;;;;26.02;23.23;;;;;;;;;;5029934;28;20075;-64
2023/02/17 05:41:33;;;;;;;28.55;23.60;;;;;;;;;;5011869;28;20036;-64
2023/02/17 05:43:59;;;;;;;25.48;22.77;;;;;;;;;;5029742;28;20028;-65
2023/02/17 05:46:25;;;;;;;23.88;21.33;;;;;;;;;;5015753;28;20021;-64
2023/02/17 05:48:51;;;;;;;24.73;22.13;;;;;;;;;;5033768;28;20030;-65
2023/02/17 05:51:17;;;;;;;24.58;22.08;;;;;;;;;;5033662;28;20031;-64
2023/02/17 05:53:44;;;;;;;23.55;21.08;;;;;;;;;;5014890;28;20036;-65
2023/02/17 05:56:10;;;;;;;25.75;23.05;;;;;;;;;;5033204;28;20107;-65
2023/02/17 05:58:36;;;;;;;25.73;23.13;;;;;;;;;;5033448;28;20347;-64
2023/02/17 06:01:06;;;;;;;25.88;23.17;;;;;;;;;;5030550;28;20049;-65
2023/02/17 06:03:32;;;;;;;24.92;22.33;;;;;;;;;;5023887;28;20096;-64
2023/02/17 06:05:58;;;;;;;24.55;21.80;;;;;;;;;;5004053;28;20405;-65
2023/02/17 06:08:24;;;;;;;24.27;21.77;;;;;;;;;;5013129;28;20033;-63
2023/02/17 06:10:52;;;;;;;24.73;22.25;;;;;;;;;;5029107;28;20109;-64
2023/02/17 06:13:18;;;;;;;25.00;22.38;;;;;;;;;;5014680;28;20022;-64
2023/02/17 06:18:27;;;;;;;26.85;21.77;;;;;;;;;;5051918;28;20132;-61
2023/02/17 06:20:56;;;;;;;25.48;22.77;;;;;;;;;;5036083;28;20119;-63
2023/02/17 06:23:26;;;;;;;23.75;21.25;;;;;;;;;;5053008;28;20028;-62
2023/02/17 06:25:52;;;;;;;22.73;20.42;;;;;;;;;;5053419;28;20018;-58
2023/02/17 06:28:18;;;;;;;25.35;22.70;;;;;;;;;;5034012;28;20029;-64
2023/02/17 06:30:44;;;;;;;25.88;23.23;;;;;;;;;;5034055;28;20497;-62
2023/02/17 06:33:10;;;;;;;24.67;22.08;;;;;;;;;;5033298;28;20041;-60
2023/02/17 06:35:36;;;;;;;24.35;21.52;;;;;;;;;;5016014;28;20112;-60
2023/02/17 06:38:03;;;;;;;26.02;23.20;;;;;;;;;;5033323;28;20049;-58
2023/02/17 06:40:29;;;;;;;26.25;23.45;;;;;;;;;;5034045;28;20080;-60
2023/02/17 06:42:55;;;;;;;25.48;22.77;;;;;;;;;;5015980;28;20029;-58
2023/02/17 06:45:21;;;;;;;26.13;23.38;;;;;;;;;;5015429;28;20017;-62
2023/02/17 06:47:47;;;;;;;26.33;23.40;;;;;;;;;;5033662;28;20071;-61
2023/02/17 06:50:14;;;;;;;27.08;24.23;;;;;;;;;;5023179;28;20044;-59
2023/02/17 06:52:40;;;;;;;25.55;22.83;;;;;;;;;;5015746;28;20025;-61
2023/02/17 06:55:07;;;;;;;25.98;23.17;;;;;;;;;;5032068;28;20026;-57
2023/02/17 06:57:33;;;;;;;26.65;23.92;;;;;;;;;;5032301;28;20374;-62
2023/02/17 06:59:59;;;;;;;26.00;23.30;;;;;;;;;;5033499;28;20026;-60
2023/02/17 07:02:25;;;;;;;25.95;23.08;;;;;;;;;;5033628;28;20026;-58
2023/02/17 07:04:51;;;;;;;25.20;22.50;;;;;;;;;;5032647;28;20029;-60
2023/02/17 07:07:17;;;;;;;26.70;22.02;;;;;;;;;;5033208;28;20153;-59
2023/02/17 07:09:43;;;;;;;25.58;22.88;;;;;;;;;;5015530;28;20028;-59
2023/02/17 07:12:08;;;;;;;27.83;24.23;;;;;;;;;;5033300;28;20029;-60
2023/02/17 07:14:35;;;;;;;28.42;25.27;;;;;;;;;;5014652;28;20375;-55
2023/02/17 07:17:01;;;;;;;27.50;23.08;;;;;;;;;;5032809;28;20497;-58
2023/02/17 07:19:27;;;;;;;29.35;26.20;;;;;;;;;;5014979;28;20477;-58
2023/02/17 07:21:53;;;;;;;30.48;27.20;;;;;;;;;;5033127;28;20025;-59
2023/02/17 07:24:19;;;;;;;30.75;25.52;;;;;;;;;;5014471;28;20028;-58
2023/02/17 07:26:45;;;;;;;28.88;24.98;;;;;;;;;;5033338;28;20398;-61
2023/02/17 07:29:11;;;;;;;28.35;24.92;;;;;;;;;;5033095;28;20029;-62
2023/02/17 07:31:37;;;;;;;33.83;27.83;;;;;;;;;;5015653;28;20393;-62
2023/02/17 07:34:03;;;;;;;42.72;28.25;;;;;;;;;;5014476;28;20079;-60
2023/02/17 07:36:30;;;;;;;27.02;24.08;;;;;;;;;;5032420;28;20440;-62
2023/02/17 07:38:56;;;;;;;28.88;24.88;;;;;;;;;;5032473;28;20489;-61
2023/02/17 07:41:23;;;;;;;26.13;22.38;;;;;;;;;;5014849;28;20026;-61
2023/02/17 07:43:52;;;;;;;26.10;21.25;;;;;;;;;;5032074;28;20029;-60
2023/02/17 07:46:19;;;;;;;25.80;22.33;;;;;;;;;;5014633;28;20039;-61
2023/02/17 07:48:45;;;;;;;26.88;22.85;;;;;;;;;;5014632;28;20128;-62
2023/02/17 07:51:13;;;;;;;28.02;23.92;;;;;;;;;;5014720;28;20036;-61
2023/02/17 07:53:39;;;;;;;28.87;24.43;;;;;;;;;;5031715;28;20216;-62
2023/02/17 07:56:06;;;;;;;27.60;24.08;;;;;;;;;;5014451;28;20120;-59
2023/02/17 07:58:33;;;;;;;28.77;24.30;;;;;;;;;;5032595;28;20034;-60
2023/02/17 08:01:04;;;;;;;29.40;24.45;;;;;;;;;;5032243;28;20112;-60
2023/02/17 08:03:30;;;;;;;25.42;21.58;;;;;;;;;;5031585;28;20021;-60
2023/02/17 08:05:56;;;;;;;27.70;23.50;;;;;;;;;;5032355;28;20022;-65
2023/02/17 08:14:11;;;;;;;22.83;19.77;;;;;;;;;;4951852;29;20071;-64
2023/02/17 08:16:37;;;;;;;25.20;21.55;;;;;;;;;;4982830;28;20069;-64
2023/02/17 08:19:03;;;;;;;23.27;20.50;;;;;;;;;;5032224;28;20048;-65
2023/02/17 08:21:29;;;;;;;23.58;19.38;;;;;;;;;;5032310;28;20458;-65
2023/02/17 08:23:55;;;;;;;24.80;20.63;;;;;;;;;;5014111;28;20032;-64
2023/02/17 08:26:22;;;;;;;24.92;20.92;;;;;;;;;;5033546;28;20470;-66
2023/02/17 08:28:48;;;;;;;24.13;20.58;;;;;;;;;;5014726;28;20040;-60
2023/02/17 08:31:17;;;;;;;24.50;20.88;;;;;;;;;;5014475;28;20026;-63
2023/02/17 08:33:43;;;;;;;24.65;19.83;;;;;;;;;;5031271;28;20021;-64
2023/02/17 08:36:09;;;;;;;24.60;19.90;;;;;;;;;;5031837;28;20087;-64
2023/02/17 08:38:35;;;;;;;23.70;19.42;;;;;;;;;;5014415;28;20026;-64
2023/02/17 08:41:01;;;;;;;24.05;18.23;;;;;;;;;;5014542;28;20053;-64
2023/02/17 08:43:27;;;;;;;24.77;19.95;;;;;;;;;;5014406;28;20032;-65
2023/02/17 08:45:53;;;;;;;26.95;19.92;;;;;;;;;;5015025;28;20026;-65
2023/02/17 08:48:19;;;;;;;25.27;20.25;;;;;;;;;;5013782;28;20013;-63
2023/02/17 08:50:48;;;;;;;25.50;19.33;;;;;;;;;;5015076;28;20105;-66
2023/02/17 08:53:14;;;;;;;25.75;20.38;;;;;;;;;;5013844;28;20497;-65
2023/02/17 08:55:40;;;;;;;24.92;19.60;;;;;;;;;;5032171;28;20041;-66
2023/02/17 08:58:06;;;;;;;24.50;19.85;;;;;;;;;;5014451;28;20021;-63
2023/02/17 09:00:32;;;;;;;25.88;20.63;;;;;;;;;;5014553;28;20489;-66
2023/02/17 09:02:58;;;;;;;26.38;19.23;;;;;;;;;;5031811;28;20021;-64
2023/02/17 09:05:25;;;;;;;24.63;19.42;;;;;;;;;;5014060;28;20026;-66
2023/02/17 09:07:51;;;;;;;23.05;19.52;;;;;;;;;;5014786;28;20021;-66
2023/02/17 09:10:17;;;;;;;24.45;19.35;;;;;;;;;;5015042;28;20363;-66
2023/02/17 09:12:43;;;;;;;25.08;20.40;;;;;;;;;;5031921;28;20051;-65
2023/02/17 09:15:09;;;;;;;24.98;19.58;;;;;;;;;;5013265;28;20025;-65
2023/02/17 09:17:38;;;;;;;23.73;19.25;;;;;;;;;;5013114;28;20489;-66
2023/02/17 09:20:05;;;;;;;24.75;18.95;;;;;;;;;;5029168;28;20022;-66
2023/02/17 09:22:31;;;;;;;25.20;18.80;;;;;;;;;;5017779;28;20370;-62
2023/02/17 09:24:57;;;;;;;24.30;19.67;;;;;;;;;;5035195;28;20033;-62
2023/02/17 09:27:23;;;;;;;23.75;19.25;;;;;;;;;;5035675;28;20029;-63
2023/02/17 09:29:49;;;;;;;24.05;19.42;;;;;;;;;;5035491;28;20021;-64
2023/02/17 09:32:15;;;;;;;23.40;18.65;;;;;;;;;;5017485;28;20041;-64
2023/02/17 09:34:48;;;;;;;24.45;19.50;;;;;;;;;;5016518;28;20021;-64
2023/02/17 09:37:16;;;;;;;25.85;19.70;;;;;;;;;;5017278;28;20029;-63
2023/02/17 09:39:42;;;;;;;24.17;19.67;;;;;;;;;;5017275;28;20036;-64
2023/02/17 09:42:16;;;;;;;26.02;20.23;;;;;;;;;;5034969;28;20029;-64
2023/02/17 09:44:43;;;;;;;24.33;19.27;;;;;;;;;;5016417;28;20036;-64
2023/02/17 09:47:22;;;;;;;24.50;18.25;;;;;;;;;;5034839;28;20017;-65
2023/02/17 09:49:52;;;;;;;21.45;18.05;;;;;;;;;;5034856;28;20028;-64
2023/02/17 09:52:30;;;;;;;24.02;19.80;;;;;;;;;;5034904;28;20404;-64
2023/02/17 09:54:59;;;;;;;24.50;20.63;;;;;;;;;;5016204;28;20033;-64
2023/02/17 09:57:27;;;;;;;26.10;18.98;;;;;;;;;;5017105;28;20032;-66
2023/02/17 09:59:55;;;;;;;21.88;17.30;;;;;;;;;;5034829;28;20087;-66
2023/02/17 10:02:26;;;;;;;22.27;17.65;;;;;;;;;;5033512;28;20033;-66
2023/02/17 10:04:52;;;;;;;22.73;18.42;;;;;;;;;;5033602;28;20155;-66
2023/02/17 10:07:25;;;;;;;24.63;18.05;;;;;;;;;;5034260;28;20539;-67
2023/02/17 10:09:53;;;;;;;22.70;18.80;;;;;;;;;;5034581;28;20538;-66
2023/02/17 10:12:27;;;;;;;22.95;17.55;;;;;;;;;;5034280;28;20025;-67
2023/02/17 10:14:58;;;;;;;22.02;18.30;;;;;;;;;;5033708;28;20079;-66
2023/02/17 10:17:42;;;;;;;24.90;19.38;;;;;;;;;;5034359;28;20041;-67
2023/02/17 10:20:10;;;;;;;22.95;18.52;;;;;;;;;;5016575;28;20074;-66
2023/02/17 10:22:36;;;;;;;21.20;17.35;;;;;;;;;;5016509;28;20075;-65
2023/02/17 10:25:12;;;;;;;22.75;18.35;;;;;;;;;;5015929;28;20044;-66
2023/02/17 10:27:41;;;;;;;21.73;16.70;;;;;;;;;;5016214;28;20017;-66
2023/02/17 10:30:10;;;;;;;21.20;16.88;;;;;;;;;;5016083;28;20513;-66
2023/02/17 10:32:55;;;;;;;21.33;16.52;;;;;;;;;;5033986;28;20025;-67
2023/02/17 10:35:28;;;;;;;21.05;15.85;;;;;;;;;;5033445;28;20163;-66
2023/02/17 10:38:12;;;;;;;20.35;16.25;;;;;;;;;;5016224;28;20412;-66
2023/02/17 10:40:38;;;;;;;20.95;14.88;;;;;;;;;;5016107;28;20025;-67
2023/02/17 10:43:05;;;;;;;20.20;15.25;;;;;;;;;;5015495;28;20370;-65
2023/02/17 10:45:34;;;;;;;19.85;15.05;;;;;;;;;;5016240;28;20417;-66
2023/02/17 10:48:15;;;;;;;19.65;15.13;;;;;;;;;;5033996;28;20540;-67
2023/02/17 10:50:42;;;;;;;19.10;15.20;;;;;;;;;;5016146;28;20037;-66
2023/02/17 10:53:19;;;;;;;22.05;15.80;;;;;;;;;;5014956;28;20056;-67
2023/02/17 10:56:04;;;;;;;20.08;15.60;;;;;;;;;;5033597;28;20024;-66
2023/02/17 10:58:45;;;;;;;23.25;16.20;;;;;;;;;;5033660;28;20104;-66
2023/02/17 11:01:11;;;;;;;19.88;14.52;;;;;;;;;;5033426;28;20052;-67
2023/02/17 11:03:39;;;;;;;19.70;13.13;;;;;;;;;;5031878;28;20036;-67
2023/02/17 11:06:14;;;;;;;20.00;15.30;;;;;;;;;;5016124;28;20049;-67
2023/02/17 11:08:45;;;;;;;21.67;14.55;;;;;;;;;;5033588;28;20021;-65
2023/02/17 11:11:19;;;;;;;20.30;14.20;;;;;;;;;;5012076;28;20030;-66
2023/02/17 11:14:02;;;;;;;20.60;14.15;;;;;;;;;;5023127;28;20116;-67
2023/02/17 11:16:32;;;;;;;20.42;14.88;;;;;;;;;;5032772;28;20036;-66
2023/02/17 11:18:58;;;;;;;19.35;14.20;;;;;;;;;;5014969;28;20098;-66
2023/02/17 11:21:24;;;;;;;19.65;14.30;;;;;;;;;;5015218;28;20029;-66
2023/02/17 11:24:01;;;;;;;18.92;14.65;;;;;;;;;;5009721;28;20036;-59
2023/02/17 11:26:29;;;;;;;19.90;15.35;;;;;;;;;;5012542;28;20029;-62
2023/02/17 11:28:55;;;;;;;21.03;15.57;;;;;;;;;;5015114;28;20030;-63
2023/02/17 11:31:25;;;;;;;19.50;14.15;;;;;;;;;;5032575;28;20331;-61
2023/02/17 11:33:51;;;;;;;20.98;15.85;;;;;;;;;;5031745;28;20060;-62
2023/02/17 11:36:23;;;;;;;18.55;14.57;;;;;;;;;;5013058;28;20025;-60
2023/02/17 11:38:49;;;;;;;20.42;14.73;;;;;;;;;;5014999;28;20022;-63
2023/02/17 11:41:16;;;;;;;17.80;13.80;;;;;;;;;;5032504;28;20108;-60
2023/02/17 11:43:57;;;;;;;25.65;14.93;;;;;;;;;;5031118;28;20033;-62
2023/02/17 11:46:26;;;;;;;20.63;13.82;;;;;;;;;;5014684;28;20029;-63
2023/02/17 11:49:15;;;;;;;21.13;15.50;;;;;;;;;;5014796;28;20703;-62
2023/02/17 11:52:00;;;;;;;19.83;14.73;;;;;;;;;;4969776;28;20516;-61
2023/02/17 11:54:44;;;;;;;19.90;15.35;;;;;;;;;;5013881;28;20143;-61
2023/02/17 11:57:10;;;;;;;17.63;13.15;;;;;;;;;;5015321;28;20026;-59
2023/02/17 11:59:47;;;;;;;19.73;14.02;;;;;;;;;;5032400;28;20436;-59
2023/02/17 12:02:13;;;;;;;20.10;15.32;;;;;;;;;;5032160;28;20112;-62
2023/02/17 12:04:42;;;;;;;19.67;14.85;;;;;;;;;;5031179;28;20109;-64
2023/02/17 12:07:14;;;;;;;19.83;14.70;;;;;;;;;;5032160;28;20060;-61
2023/02/17 12:09:49;;;;;;;21.80;14.98;;;;;;;;;;5031792;28;20354;-62
2023/02/17 12:12:36;;;;;;;19.45;15.50;;;;;;;;;;5014289;28;20053;-62
2023/02/17 12:15:21;;;;;;;18.65;14.90;;;;;;;;;;5013694;28;20516;-63
2023/02/17 12:17:55;;;;;;;18.80;14.07;;;;;;;;;;5031724;28;20071;-63
2023/02/17 12:20:24;;;;;;;19.05;14.80;;;;;;;;;;5031867;28;20049;-62
2023/02/17 12:23:09;;;;;;;19.75;16.88;;;;;;;;;;5014623;28;20025;-64
2023/02/17 12:25:41;;;;;;;18.75;14.73;;;;;;;;;;5031425;28;20077;-58
2023/02/17 12:28:07;;;;;;;19.55;14.68;;;;;;;;;;5031810;28;20051;-62
2023/02/17 12:30:44;;;;;;;19.00;14.80;;;;;;;;;;5032003;28;20029;-63
2023/02/17 12:35:57;;;;;;;19.17;14.48;;;;;;;;;;5037842;28;20049;-59
2023/02/17 12:38:25;;;;;;;19.77;15.27;;;;;;;;;;5017631;28;20022;-61
2023/02/17 12:41:14;;;;;;;20.00;16.00;;;;;;;;;;5046199;28;20025;-58
2023/02/17 12:43:44;;;;;;;19.90;16.13;;;;;;;;;;5040121;28;20279;-61
2023/02/17 12:46:18;;;;;;;19.67;15.00;;;;;;;;;;5045674;28;20044;-62
2023/02/17 12:48:53;;;;;;;19.15;15.05;;;;;;;;;;5025460;28;20025;-60
2023/02/17 12:51:31;;;;;;;21.17;15.88;;;;;;;;;;5033638;28;20265;-60
2023/02/17 12:54:17;;;;;;;19.48;15.77;;;;;;;;;;5041111;28;20031;-59
2023/02/17 12:57:09;;;;;;;19.98;15.70;;;;;;;;;;5041430;28;20035;-60
2023/02/17 12:59:37;;;;;;;19.60;15.52;;;;;;;;;;5046576;28;20103;-63
2023/02/17 13:02:05;;;;;;;21.20;17.17;;;;;;;;;;5033193;28;20025;-59
2023/02/17 13:04:31;;;;;;;20.15;17.15;;;;;;;;;;5032692;28;20021;-62
2023/02/17 13:07:07;;;;;;;20.80;17.65;;;;;;;;;;5050821;28;20044;-61
2023/02/17 13:09:35;;;;;;;19.70;15.65;;;;;;;;;;5050054;28;20101;-59
2023/02/17 13:12:16;;;;;;;20.50;16.58;;;;;;;;;;5050924;28;20025;-58
2023/02/17 13:14:42;;;;;;;20.95;16.55;;;;;;;;;;5049932;28;20086;-62
2023/02/17 13:19:44;;;;;;;20.52;17.33;;;;;;;;;;1484251;26;20045;-63
2023/02/17 13:22:21;;;;;;;22.17;17.52;;;;;;;;;;5013574;28;20129;-62
2023/02/17 13:24:54;;;;;;;20.60;18.20;;;;;;;;;;5016723;28;20037;-58
2023/02/17 13:27:30;;;;;;;23.65;19.88;;;;;;;;;;4993170;28;20446;-59
2023/02/17 13:29:59;;;;;;;23.73;21.20;;;;;;;;;;5011075;28;20081;-58
2023/02/17 13:32:29;;;;;;;26.38;23.67;;;;;;;;;;5011141;28;20072;-60
2023/02/17 13:35:07;;;;;;;28.75;25.95;;;;;;;;;;5010627;28;20092;-59
2023/02/17 13:37:33;;;;;;;32.38;29.17;;;;;;;;;;5010511;28;20095;-60
2023/02/17 13:40:00;;;;;;;42.85;39.00;;;;;;;;;;4992763;28;20030;-58
2023/02/17 13:42:37;;;;;;;53.83;49.08;;;;;;;;;;4992908;28;20026;-62
2023/02/17 13:45:15;;;;;;;63.03;57.80;;;;;;;;;;4992593;28;20032;-59
2023/02/17 13:47:42;;;;;;;60.75;55.75;;;;;;;;;;5010794;28;20033;-60
2023/02/17 13:50:29;;;;;;;64.57;58.97;;;;;;;;;;4992572;28;20405;-58
2023/02/17 13:52:55;;;;;;;66.47;60.85;;;;;;;;;;5010458;28;20022;-61
2023/02/17 13:55:24;;;;;;;70.32;64.43;;;;;;;;;;5010301;28;20028;-63
2023/02/17 13:57:55;;;;;;;68.15;62.50;;;;;;;;;;5010744;28;20060;-60
2023/02/17 14:00:21;;;;;;;70.18;64.20;;;;;;;;;;5007923;28;20036;-61
2023/02/17 14:02:50;;;;;;;70.30;64.45;;;;;;;;;;5002412;28;20026;-58
2023/02/17 14:05:18;;;;;;;69.85;63.80;;;;;;;;;;5010422;28;20026;-61
2023/02/17 14:07:46;;;;;;;70.15;64.15;;;;;;;;;;4996234;28;20081;-60
2023/02/17 14:10:19;;;;;;;73.13;66.18;;;;;;;;;;5001260;28;20025;-60
2023/02/17 14:12:47;;;;;;;70.85;64.43;;;;;;;;;;5000265;28;20462;-58
2023/02/17 14:15:17;;;;;;;68.78;63.10;;;;;;;;;;4992153;28;20175;-60
2023/02/17 14:17:43;;;;;;;68.68;63.08;;;;;;;;;;5007475;28;20045;-60
2023/02/17 14:20:32;;;;;;;59.70;54.78;;;;;;;;;;5013572;28;20089;-61
2023/02/17 14:22:59;;;;;;;55.97;51.13;;;;;;;;;;4987503;28;20081;-59
2023/02/17 14:25:27;;;;;;;51.00;46.63;;;;;;;;;;4987131;28;20128;-63
2023/02/17 14:27:54;;;;;;;45.80;41.73;;;;;;;;;;4980208;28;20030;-60
2023/02/17 14:30:31;;;;;;;39.25;35.65;;;;;;;;;;5001660;28;20283;-62
2023/02/17 14:33:20;;;;;;;42.33;38.63;;;;;;;;;;5008246;28;20112;-61
2023/02/17 14:35:53;;;;;;;43.88;40.17;;;;;;;;;;4991040;28;20054;-61
2023/02/17 14:38:37;;;;;;;38.30;35.08;;;;;;;;;;5002469;28;20092;-60
2023/02/17 14:41:04;;;;;;;44.70;40.90;;;;;;;;;;4987427;28;20480;-57
2023/02/17 14:43:30;;;;;;;37.63;34.35;;;;;;;;;;4994325;28;20145;-61
2023/02/17 14:45:56;;;;;;;44.58;40.55;;;;;;;;;;4994982;28;20018;-60